Map

Track Data

SID SEASON NUMBER BASIN SUBBASIN NAME ISO_TIME NATURE LAT LON WMO_WIND WMO_PRES WMO_AGENCY TRACK_TYPE DIST2LAND LANDFALL IFLAG USA_AGENCY USA_ATCF_ID USA_LAT USA_LON USA_RECORD USA_STATUS USA_WIND USA_PRES USA_SSHS USA_R34_NE USA_R34_SE USA_R34_SW USA_R34_NW USA_R50_NE USA_R50_SE USA_R50_SW USA_R50_NW USA_R64_NE USA_R64_SE USA_R64_SW USA_R64_NW USA_POCI USA_ROCI USA_RMW USA_EYE TOKYO_LAT TOKYO_LON TOKYO_GRADE TOKYO_WIND TOKYO_PRES TOKYO_R50_DIR TOKYO_R50_LONG TOKYO_R50_SHORT TOKYO_R30_DIR TOKYO_R30_LONG TOKYO_R30_SHORT TOKYO_LAND CMA_LAT CMA_LON CMA_CAT CMA_WIND CMA_PRES HKO_LAT HKO_LON HKO_CAT HKO_WIND HKO_PRES NEWDELHI_LAT NEWDELHI_LON NEWDELHI_GRADE NEWDELHI_WIND NEWDELHI_PRES NEWDELHI_CI NEWDELHI_DP NEWDELHI_POCI REUNION_LAT REUNION_LON REUNION_TYPE REUNION_WIND REUNION_PRES REUNION_TNUM REUNION_CI REUNION_RMW REUNION_R34_NE REUNION_R34_SE REUNION_R34_SW REUNION_R34_NW REUNION_R50_NE REUNION_R50_SE REUNION_R50_SW REUNION_R50_NW REUNION_R64_NE REUNION_R64_SE REUNION_R64_SW REUNION_R64_NW BOM_LAT BOM_LON BOM_TYPE BOM_WIND BOM_PRES BOM_TNUM BOM_CI BOM_RMW BOM_R34_NE BOM_R34_SE BOM_R34_SW BOM_R34_NW BOM_R50_NE BOM_R50_SE BOM_R50_SW BOM_R50_NW BOM_R64_NE BOM_R64_SE BOM_R64_SW BOM_R64_NW BOM_ROCI BOM_POCI BOM_EYE BOM_POS_METHOD BOM_PRES_METHOD NADI_LAT NADI_LON NADI_CAT NADI_WIND NADI_PRES WELLINGTON_LAT WELLINGTON_LON WELLINGTON_WIND WELLINGTON_PRES DS824_LAT DS824_LON DS824_STAGE DS824_WIND DS824_PRES TD9636_LAT TD9636_LON TD9636_STAGE TD9636_WIND TD9636_PRES TD9635_LAT TD9635_LON TD9635_WIND TD9635_PRES TD9635_ROCI NEUMANN_LAT NEUMANN_LON NEUMANN_CLASS NEUMANN_WIND NEUMANN_PRES MLC_LAT MLC_LON MLC_CLASS MLC_WIND MLC_PRES USA_GUST BOM_GUST BOM_GUST_PER REUNION_GUST REUNION_GUST_PER USA_SEAHGT USA_SEARAD_NE USA_SEARAD_SE USA_SEARAD_SW USA_SEARAD_NW STORM_SPEED STORM_DIR
1970200N19277 1970 66 NA CS BECKY 1970-07-19 00:00:00 TS 18.5000 -83.5000 30 1011 hurdat_atl main 313 308 O_____________ hurdat_atl AL021970 18.5000 -83.5000 TD 30 1011 -1 10 284
1970200N19277 1970 66 NA CS BECKY 1970-07-19 03:00:00 TS 18.6278 -84.0224 main 311 308 P_____________ AL021970 18.6278 -84.0224 TD 30 1011 -1 10 288
1970200N19277 1970 66 NA CS BECKY 1970-07-19 06:00:00 TS 18.8000 -84.5000 30 1011 hurdat_atl main 314 268 O_____________ hurdat_atl AL021970 18.8000 -84.5000 TD 30 1011 -1 9 297
1970200N19277 1970 66 NA CS BECKY 1970-07-19 09:00:00 TS 19.0549 -84.8950 main 266 230 P_____________ AL021970 19.0549 -84.8950 TD 30 1010 -1 9 312
1970200N19277 1970 66 NA CS BECKY 1970-07-19 12:00:00 TS 19.4000 -85.2000 30 1009 hurdat_atl main 230 192 O_____________ hurdat_atl AL021970 19.4000 -85.2000 TD 30 1009 -1 9 327
1970200N19277 1970 66 NA CS BECKY 1970-07-19 15:00:00 TS 19.8199 -85.4301 main 192 145 P_____________ AL021970 19.8199 -85.4301 TD 30 1009 -1 10 337
1970200N19277 1970 66 NA CS BECKY 1970-07-19 18:00:00 TS 20.3000 -85.6000 30 1010 hurdat_atl main 145 109 O_____________ hurdat_atl AL021970 20.3000 -85.6000 TD 30 1010 -1 10 343
1970200N19277 1970 66 NA CS BECKY 1970-07-19 21:00:00 TS 20.7925 -85.7576 main 99 82 P_____________ AL021970 20.7925 -85.7576 TD 32 1009 -1 10 344
1970200N19277 1970 66 NA CS BECKY 1970-07-20 00:00:00 TS 21.3000 -85.9000 35 1009 hurdat_atl main 85 85 O_____________ hurdat_atl AL021970 21.3000 -85.9000 TS 35 1009 0 11 345
1970200N19277 1970 66 NA GM BECKY 1970-07-20 03:00:00 TS 21.8075 -86.0575 main 91 91 P_____________ AL021970 21.8075 -86.0575 TS 37 0 10 344
1970200N19277 1970 66 NA GM BECKY 1970-07-20 06:00:00 TS 22.3000 -86.2000 40 hurdat_atl main 121 121 O_____________ hurdat_atl AL021970 22.3000 -86.2000 TS 40 0 10 346
1970200N19277 1970 66 NA GM BECKY 1970-07-20 09:00:00 TS 22.7575 -86.3077 main 162 162 P_____________ AL021970 22.7575 -86.3077 TS 40 0 9 348
1970200N19277 1970 66 NA GM BECKY 1970-07-20 12:00:00 TS 23.2000 -86.4000 40 hurdat_atl main 199 199 O_____________ hurdat_atl AL021970 23.2000 -86.4000 TS 40 0 9 348
1970200N19277 1970 66 NA GM BECKY 1970-07-20 15:00:00 TS 23.6500 -86.5075 main 251 251 P_____________ AL021970 23.6500 -86.5075 TS 42 0 9 349
1970200N19277 1970 66 NA GM BECKY 1970-07-20 18:00:00 TS 24.1000 -86.6000 45 1008 hurdat_atl main 293 293 O_____________ hurdat_atl AL021970 24.1000 -86.6000 TS 45 1008 0 9 351
1970200N19277 1970 66 NA GM BECKY 1970-07-20 21:00:00 TS 24.5575 -86.6576 main 346 346 P_____________ AL021970 24.5575 -86.6576 TS 47 1005 0 9 355
1970200N19277 1970 66 NA GM BECKY 1970-07-21 00:00:00 TS 25.0000 -86.7000 50 1003 hurdat_atl main 375 375 O_____________ hurdat_atl AL021970 25.0000 -86.7000 TS 50 1003 0 9 353
1970200N19277 1970 66 NA GM BECKY 1970-07-21 03:00:00 TS 25.4075 -86.7649 main 414 414 P_____________ AL021970 25.4075 -86.7649 TS 52 1003 0 8 354
1970200N19277 1970 66 NA GM BECKY 1970-07-21 06:00:00 TS 25.8000 -86.8000 55 1004 hurdat_atl main 423 385 O_____________ hurdat_atl AL021970 25.8000 -86.8000 TS 55 1004 0 8 358
1970200N19277 1970 66 NA GM BECKY 1970-07-21 09:00:00 TS 26.1924 -86.7873 main 385 356 P_____________ AL021970 26.1924 -86.7873 TS 55 1005 0 8 6
1970200N19277 1970 66 NA GM BECKY 1970-07-21 12:00:00 TS 26.6000 -86.7000 55 1006 hurdat_atl main 356 320 O_____________ hurdat_atl AL021970 26.6000 -86.7000 TS 55 1006 0 9 16
1970200N19277 1970 66 NA GM BECKY 1970-07-21 15:00:00 TS 27.0500 -86.5227 main 309 260 P_____________ AL021970 27.0500 -86.5227 TS 55 1006 0 10 22
1970200N19277 1970 66 NA GM BECKY 1970-07-21 18:00:00 TS 27.5000 -86.3000 55 hurdat_atl main 260 212 I_____________ hurdat_atl AL021970 27.5000 -86.3000 TS 55 1006 0 9 24
1970200N19277 1970 66 NA GM BECKY 1970-07-21 21:00:00 TS 27.9075 -86.0998 main 212 163 P_____________ AL021970 27.9075 -86.0998 TS 52 1006 0 9 24
1970200N19277 1970 66 NA GM BECKY 1970-07-22 00:00:00 TS 28.3000 -85.9000 50 1007 hurdat_atl main 163 115 O_____________ hurdat_atl AL021970 28.3000 -85.9000 TS 50 1007 0 9 25
1970200N19277 1970 66 NA GM BECKY 1970-07-22 03:00:00 TS 28.6909 -85.6908 main 115 67 P_____________ AL021970 28.6909 -85.6908 TS 47 1007 0 9 24
1970200N19277 1970 66 NA GM BECKY 1970-07-22 06:00:00 TS 29.1000 -85.5000 45 1007 hurdat_atl main 67 22 O_____________ hurdat_atl AL021970 29.1000 -85.5000 TS 45 1007 0 9 19
1970200N19277 1970 66 NA GM BECKY 1970-07-22 09:00:00 TS 29.5482 -85.3482 main 22 0 P_____________ AL021970 29.5482 -85.3482 TS 41 1007 0 9 16
1970200N19277 1970 66 NA GM BECKY 1970-07-22 10:00:00 TS 29.7000 -85.3000 40 1007 hurdat_atl main 0 0 O_____________ hurdat_atl AL021970 29.7000 -85.3000 L TS 40 1007 0 9 16
1970200N19277 1970 66 NA NA BECKY 1970-07-22 12:00:00 TS 30.0000 -85.2000 35 1007 hurdat_atl main 0 0 O_____________ hurdat_atl AL021970 30.0000 -85.2000 TS 35 1007 0 12 6
1970200N19277 1970 66 NA NA BECKY 1970-07-22 15:00:00 TS 30.6543 -85.1905 main 0 0 P_____________ AL021970 30.6543 -85.1905 TS 30 -1 15 357
1970200N19277 1970 66 NA NA BECKY 1970-07-22 18:00:00 TS 31.5000 -85.3000 25 hurdat_atl main 0 0 O_____________ hurdat_atl AL021970 31.5000 -85.3000 TD 25 -1 18 354
1970200N19277 1970 66 NA NA BECKY 1970-07-22 21:00:00 TS 32.4125 -85.4203 main 0 0 P_____________ AL021970 32.4125 -85.4203 TD 25 -1 19 352
1970200N19277 1970 66 NA NA BECKY 1970-07-23 00:00:00 TS 33.4000 -85.6000 25 hurdat_atl main 0 0 O_____________ hurdat_atl AL021970 33.4000 -85.6000 TD 25 -1 20 350
1970200N19277 1970 66 NA NA BECKY 1970-07-23 03:00:00 TS 34.3850 -85.8279 main 0 0 P_____________ AL021970 34.3850 -85.8279 TD 22 -1 20 348
1970200N19277 1970 66 NA NA BECKY 1970-07-23 06:00:00 TS 35.4000 -86.1000 20 hurdat_atl main 0 0 O_____________ hurdat_atl AL021970 35.4000 -86.1000 TD 20 -1 21 347
1970200N19277 1970 66 NA NA BECKY 1970-07-23 09:00:00 TS 36.4426 -86.3933 main 0 0 P_____________ AL021970 36.4426 -86.3933 TD 20 -1 22 347
1970200N19277 1970 66 NA NA BECKY 1970-07-23 12:00:00 TS 37.5000 -86.7000 20 hurdat_atl main 0 O_____________ hurdat_atl AL021970 37.5000 -86.7000 TD 20 -1 22 347

About IBTrACS Database

This database is a web-friendly format of International Best Track Archive for Climate Stewardship (IBTrACS), a global best track data archive curated by NOAA dating back to 1842.

Updated: 2022-09-26